Darstellungsparameter: Aktuell verwendete Einstellungen:
Skalierung der Graphiken ... ?
xyx+y,   Skalierungsfaktor:      Skalierung: Modus: x, Faktor: 1
Darstellungszeitraum ... ?
Vom - - bis: - -   Zeitraum: 05.04.2020 - 05.04.2020
Min/Max/Avg-Anzeige ... ?
Zeige MMA aktuell
Zeige MMA Monat
Zeige MMA alles
Zeige --A aktuell
Zeige --A Monat
Zeige --A alles
Keine MMA-Anzeige
MMA:
Average (ber die Originaldaten)
MMA-Basis: 05.04.2020 - 05.04.2020
Quicknavigation für Darstellung... ?
Tage:      1T, 2T, 3T, 5T -1T -2T -3T -5T +1T +2T +3T +5T
Wochen: 1W, 2W, 3W -1W -2W -3W +1W +2W +3W
Monate: 1M, 3M, 6M -1M -3M -6M +1M +3M +6M
Jahre:    1J, 3J, 5J, 10J -1J -3J -5J -10J +1J +3J +5J +10J
Nutze für die Darstellung ... ?
Originaldaten oder Mittelwerte auf ...
Stundenbasis Tagesbasis Wochenbasis
Monatsbasis Jahresbasis      Datenbasis: Original-Daten
Darstellen als:
Statistik (Auto) Statistik J:M      Darstellung:
Zur Graphik,    zurück zur Übersicht aller Sensoren.
 
Tabellarische Datenbersicht: ?
 
Sensor: Nr:Datum:Temp:Abs-Feuchte:Windchill:Wind:
Aussen-T/F 1 05-04-2020 00:00:00 4.1 C 4.99 g/m*3 4.1 C 0 km/h
2 05-04-2020 00:05:00 4 C 4.96 g/m*3 4 C 0 km/h
3 05-04-2020 00:10:00 3.9 C 4.99 g/m*3 3.9 C 0 km/h
4 05-04-2020 00:15:00 3.8 C 4.96 g/m*3 3.8 C 0 km/h
5 05-04-2020 00:20:00 3.7 C 4.99 g/m*3 3.7 C 0 km/h
6 05-04-2020 00:25:00 3.6 C 5.01 g/m*3 3.6 C 0 km/h
7 05-04-2020 00:30:00 3.5 C 4.98 g/m*3 3.5 C 0 km/h
8 05-04-2020 00:35:00 3.4 C 4.95 g/m*3 3.4 C 0 km/h
9 05-04-2020 00:40:00 3.3 C 4.97 g/m*3 3.3 C 0 km/h
10 05-04-2020 00:45:00 3.3 C 4.97 g/m*3 3.3 C 0 km/h
11 05-04-2020 00:50:00 3.3 C 4.97 g/m*3 3.3 C 0 km/h
12 05-04-2020 00:55:00 3.2 C 4.94 g/m*3 3.2 C 0 km/h
13 05-04-2020 01:00:00 3.1 C 4.91 g/m*3 3.1 C 0 km/h
14 05-04-2020 01:05:00 3.1 C 4.97 g/m*3 3.1 C 0 km/h
15 05-04-2020 01:10:00 2.9 C 4.9 g/m*3 2.9 C 0 km/h
16 05-04-2020 01:15:00 2.9 C 4.96 g/m*3 2.9 C 0 km/h
17 05-04-2020 01:20:00 2.9 C 4.96 g/m*3 2.9 C 0 km/h
18 05-04-2020 01:25:00 2.9 C 4.96 g/m*3 2.9 C 0 km/h
19 05-04-2020 01:30:00 2.9 C 5.02 g/m*3 2.9 C 0 km/h
20 05-04-2020 01:35:00 2.9 C 5.02 g/m*3 2.9 C 0 km/h
21 05-04-2020 01:40:00 2.9 C 4.96 g/m*3 2.9 C 0 km/h
22 05-04-2020 01:45:00 2.8 C 4.93 g/m*3 2.8 C 0 km/h
23 05-04-2020 01:50:00 2.8 C 4.99 g/m*3 2.8 C 0 km/h
24 05-04-2020 01:55:00 2.7 C 4.89 g/m*3 2.7 C 0 km/h
25 05-04-2020 02:00:00 2.6 C 4.92 g/m*3 2.6 C 0 km/h
Sensor: Nr:Datum:Temp:Abs-Feuchte:Windchill:Wind:
Aussen-T/F 26 05-04-2020 02:05:00 2.5 C 4.89 g/m*3 2.5 C 0 km/h
27 05-04-2020 02:10:00 2.4 C 4.91 g/m*3 2.4 C 0 km/h
28 05-04-2020 02:15:00 2.3 C 4.88 g/m*3 2.3 C 0 km/h
29 05-04-2020 02:20:00 2.3 C 4.93 g/m*3 2.3 C 0 km/h
30 05-04-2020 02:25:00 2.3 C 4.93 g/m*3 2.3 C 0 km/h
31 05-04-2020 02:30:00 2.3 C 4.93 g/m*3 2.3 C 0 km/h
32 05-04-2020 02:35:00 2.3 C 4.88 g/m*3 2.3 C 0 km/h
33 05-04-2020 02:40:00 2.3 C 4.93 g/m*3 2.3 C 0 km/h
34 05-04-2020 02:45:00 2.2 C 4.84 g/m*3 2.2 C 0 km/h
35 05-04-2020 02:50:00 2.2 C 4.9 g/m*3 2.2 C 0 km/h
36 05-04-2020 02:55:00 2.1 C 4.87 g/m*3 2.1 C 3.2 km/h
37 05-04-2020 03:00:00 2.1 C 4.87 g/m*3 2.1 C 3.2 km/h
38 05-04-2020 03:05:00 2 C 4.83 g/m*3 2 C 0 km/h
39 05-04-2020 03:10:00 1.9 C 4.8 g/m*3 1.9 C 0 km/h
40 05-04-2020 03:15:00 1.9 C 4.8 g/m*3 1.9 C 0 km/h
41 05-04-2020 03:20:00 1.9 C 4.86 g/m*3 1.9 C 0 km/h
42 05-04-2020 03:25:00 1.9 C 4.86 g/m*3 1.9 C 0 km/h
43 05-04-2020 03:30:00 1.8 C 4.82 g/m*3 1.8 C 0 km/h
44 05-04-2020 03:35:00 1.8 C 4.82 g/m*3 1.8 C 0 km/h
45 05-04-2020 03:40:00 1.7 C 4.79 g/m*3 1.7 C 0 km/h
46 05-04-2020 03:45:00 1.6 C 4.76 g/m*3 1.6 C 0 km/h
47 05-04-2020 03:50:00 1.6 C 4.76 g/m*3 1.6 C 0 km/h
48 05-04-2020 03:55:00 1.6 C 4.81 g/m*3 1.6 C 0 km/h
49 05-04-2020 04:00:00 1.5 C 4.78 g/m*3 1.5 C 0 km/h
50 05-04-2020 04:05:00 1.4 C 4.75 g/m*3 1.4 C 0 km/h
Sensor: Nr:Datum:Temp:Abs-Feuchte:Windchill:Wind:
Aussen-T/F 51 05-04-2020 04:10:00 1.4 C 4.75 g/m*3 1.4 C 0 km/h
52 05-04-2020 04:15:00 1.3 C 4.72 g/m*3 1.3 C 0 km/h
53 05-04-2020 04:20:00 1.3 C 4.77 g/m*3 1.3 C 0 km/h
54 05-04-2020 04:25:00 1.3 C 4.77 g/m*3 1.3 C 0 km/h
55 05-04-2020 04:30:00 1.3 C 4.77 g/m*3 1.3 C 0 km/h
56 05-04-2020 04:35:00 1.3 C 4.77 g/m*3 1.3 C 0 km/h
57 05-04-2020 04:40:00 1.2 C 4.74 g/m*3 1.2 C 0 km/h
58 05-04-2020 04:45:00 1.2 C 4.74 g/m*3 1.2 C 0 km/h
59 05-04-2020 04:50:00 1.1 C 4.7 g/m*3 1.1 C 0 km/h
60 05-04-2020 04:55:00 1.1 C 4.7 g/m*3 1.1 C 0 km/h
61 05-04-2020 05:00:00 1 C 4.67 g/m*3 1 C 0 km/h
62 05-04-2020 05:05:00 0.9 C 4.64 g/m*3 0.9 C 0 km/h
63 05-04-2020 05:10:00 0.9 C 4.69 g/m*3 0.9 C 0 km/h
64 05-04-2020 05:15:00 0.8 C 4.66 g/m*3 0.8 C 0 km/h
65 05-04-2020 05:20:00 0.8 C 4.66 g/m*3 0.8 C 0 km/h
66 05-04-2020 05:25:00 0.8 C 4.66 g/m*3 0.8 C 0 km/h
67 05-04-2020 05:30:00 0.7 C 4.63 g/m*3 0.7 C 0 km/h
68 05-04-2020 05:35:00 0.7 C 4.63 g/m*3 0.7 C 0 km/h
69 05-04-2020 05:40:00 0.6 C 4.6 g/m*3 0.6 C 0 km/h
70 05-04-2020 05:45:00 0.6 C 4.6 g/m*3 0.6 C 0 km/h
71 05-04-2020 05:50:00 0.5 C 4.56 g/m*3 0.5 C 0 km/h
72 05-04-2020 05:55:00 0.5 C 4.61 g/m*3 0.5 C 0 km/h
73 05-04-2020 06:00:00 0.5 C 4.61 g/m*3 0.5 C 0 km/h
74 05-04-2020 06:05:00 0.4 C 4.58 g/m*3 0.4 C 0 km/h
75 05-04-2020 06:10:00 0.4 C 4.58 g/m*3 0.4 C 0 km/h
Sensor: Nr:Datum:Temp:Abs-Feuchte:Windchill:Wind:
Aussen-T/F 76 05-04-2020 06:15:00 0.4 C 4.58 g/m*3 0.4 C 0 km/h
77 05-04-2020 06:20:00 0.4 C 4.58 g/m*3 0.4 C 0 km/h
78 05-04-2020 06:25:00 0.4 C 4.58 g/m*3 0.4 C 0 km/h
79 05-04-2020 06:30:00 0.4 C 4.58 g/m*3 0.4 C 0 km/h
80 05-04-2020 06:35:00 0.3 C 4.55 g/m*3 0.3 C 0 km/h
81 05-04-2020 06:40:00 0.3 C 4.55 g/m*3 0.3 C 0 km/h
82 05-04-2020 06:45:00 0.3 C 4.6 g/m*3 0.3 C 0 km/h
83 05-04-2020 06:50:00 0.3 C 4.6 g/m*3 0.3 C 0 km/h
84 05-04-2020 06:55:00 0.3 C 4.6 g/m*3 0.3 C 0 km/h
85 05-04-2020 07:00:00 0.3 C 4.6 g/m*3 0.3 C 0 km/h
86 05-04-2020 07:05:00 0.2 C 4.57 g/m*3 0.2 C 0 km/h
87 05-04-2020 07:10:00 0.2 C 4.57 g/m*3 0.2 C 0 km/h
88 05-04-2020 07:15:00 0.3 C 4.6 g/m*3 0.3 C 0 km/h
89 05-04-2020 07:20:00 0.3 C 4.6 g/m*3 0.3 C 0 km/h
90 05-04-2020 07:25:00 0.3 C 4.6 g/m*3 0.3 C 0 km/h
91 05-04-2020 07:30:00 0.3 C 4.6 g/m*3 0.3 C 0 km/h
92 05-04-2020 07:35:00 0.3 C 4.6 g/m*3 0.3 C 0 km/h
93 05-04-2020 07:40:00 0.4 C 4.63 g/m*3 0.4 C 0 km/h
94 05-04-2020 07:45:00 0.4 C 4.63 g/m*3 0.4 C 0 km/h
95 05-04-2020 07:50:00 0.4 C 4.63 g/m*3 0.4 C 0 km/h
96 05-04-2020 07:55:00 0.5 C 4.66 g/m*3 0.5 C 0 km/h
97 05-04-2020 08:00:00 0.5 C 4.66 g/m*3 0.5 C 0 km/h
98 05-04-2020 08:05:00 0.6 C 4.75 g/m*3 0.6 C 0 km/h
99 05-04-2020 08:10:00 0.6 C 4.75 g/m*3 0.6 C 0 km/h
100 05-04-2020 08:15:00 0.7 C 4.78 g/m*3 0.7 C 0 km/h
Sensor: Nr:Datum:Temp:Abs-Feuchte:Windchill:Wind:
Aussen-T/F 101 05-04-2020 08:20:00 0.7 C 4.78 g/m*3 0.7 C 0 km/h
102 05-04-2020 08:25:00 0.8 C 4.81 g/m*3 0.8 C 0 km/h
103 05-04-2020 08:30:00 0.9 C 4.85 g/m*3 0.9 C 0 km/h
104 05-04-2020 08:35:00 1.1 C 4.91 g/m*3 1.1 C 0 km/h
105 05-04-2020 08:40:00 1.2 C 4.95 g/m*3 1.2 C 0 km/h
106 05-04-2020 08:45:00 1.2 C 4.95 g/m*3 1.2 C 0 km/h
107 05-04-2020 08:50:00 1.3 C 4.98 g/m*3 1.3 C 0 km/h
108 05-04-2020 08:55:00 1.5 C 5.05 g/m*3 1.5 C 0 km/h
109 05-04-2020 09:00:00 1.6 C 5.08 g/m*3 1.6 C 0 km/h
110 05-04-2020 09:05:00 1.7 C 5.12 g/m*3 1.7 C 0 km/h
111 05-04-2020 09:10:00 1.8 C 5.15 g/m*3 1.8 C 0 km/h
112 05-04-2020 09:15:00 1.9 C 5.19 g/m*3 1.9 C 0 km/h
113 05-04-2020 09:20:00 2.2 C 5.29 g/m*3 2.2 C 0 km/h
114 05-04-2020 09:25:00 2.3 C 5.39 g/m*3 2.3 C 0 km/h
115 05-04-2020 09:30:00 2.6 C 5.5 g/m*3 2.6 C 0 km/h
116 05-04-2020 09:35:00 2.8 C 5.57 g/m*3 2.8 C 0 km/h
117 05-04-2020 09:40:00 3 C 5.65 g/m*3 3 C 0 km/h
118 05-04-2020 09:45:00 3.3 C 5.76 g/m*3 3.3 C 0 km/h
119 05-04-2020 09:50:00 3.4 C 5.74 g/m*3 3.4 C 0 km/h
120 05-04-2020 09:55:00 3.7 C 5.86 g/m*3 3.7 C 0 km/h
121 05-04-2020 10:00:00 3.8 C 5.9 g/m*3 3.8 C 0 km/h
122 05-04-2020 10:05:00 4.1 C 5.95 g/m*3 4.1 C 0 km/h
123 05-04-2020 10:10:00 4.4 C 6.07 g/m*3 4.4 C 0 km/h
124 05-04-2020 10:15:00 4.7 C 6.13 g/m*3 4.7 C 0 km/h
125 05-04-2020 10:20:00 4.9 C 6.21 g/m*3 4.9 C 0 km/h
Sensor: Nr:Datum:Temp:Abs-Feuchte:Windchill:Wind:
Aussen-T/F 126 05-04-2020 10:25:00 5.2 C 6.27 g/m*3 5.2 C 0 km/h
127 05-04-2020 10:30:00 5.6 C 6.36 g/m*3 5.6 C 0 km/h
128 05-04-2020 10:35:00 6.1 C 6.43 g/m*3 6.1 C 0 km/h
129 05-04-2020 10:40:00 6.5 C 6.52 g/m*3 6.5 C 0 km/h
130 05-04-2020 10:45:00 6.9 C 6.54 g/m*3 6.9 C 0 km/h
131 05-04-2020 10:50:00 7.3 C 6.64 g/m*3 7.3 C 0 km/h
132 05-04-2020 10:55:00 7.8 C 6.69 g/m*3 7.8 C 0 km/h
133 05-04-2020 11:00:00 8.3 C 6.74 g/m*3 8.3 C 0 km/h
134 05-04-2020 11:05:00 8.9 C 6.92 g/m*3 8.9 C 4.8 km/h
135 05-04-2020 11:10:00 9.4 C 6.87 g/m*3 9.4 C 4.8 km/h
136 05-04-2020 11:15:00 9.9 C 7 g/m*3 9.9 C 0 km/h
137 05-04-2020 11:20:00 10.3 C 6.8 g/m*3 10.3 C 1.6 km/h
138 05-04-2020 11:25:00 10.7 C 6.97 g/m*3 10.7 C 1.6 km/h
139 05-04-2020 11:30:00 11.4 C 6.57 g/m*3 11.4 C 8.1 km/h
140 05-04-2020 11:35:00 12.4 C 6.45 g/m*3 12.4 C 4.8 km/h
141 05-04-2020 11:40:00 13.1 C 6.39 g/m*3 13.1 C 9.7 km/h
142 05-04-2020 11:45:00 13.7 C 5.8 g/m*3 13.7 C 14.5 km/h
143 05-04-2020 11:50:00 14.2 C 5.74 g/m*3 14.2 C 8.1 km/h
144 05-04-2020 11:55:00 14.8 C 5.7 g/m*3 14.8 C 6.4 km/h
145 05-04-2020 12:00:00 15.3 C 5.62 g/m*3 15.3 C 14.5 km/h
146 05-04-2020 12:05:00 15.6 C 5.45 g/m*3 15.6 C 19.3 km/h
147 05-04-2020 12:10:00 15.8 C 5.65 g/m*3 15.8 C 8.1 km/h
148 05-04-2020 12:15:00 16.1 C 5.76 g/m*3 16.1 C 14.5 km/h
149 05-04-2020 12:20:00 16.2 C 5.52 g/m*3 16.2 C 16.1 km/h
150 05-04-2020 12:25:00 16.3 C 5.41 g/m*3 16.3 C 9.7 km/h
Sensor: Nr:Datum:Temp:Abs-Feuchte:Windchill:Wind:
Aussen-T/F 151 05-04-2020 12:30:00 16.4 C 5.3 g/m*3 16.4 C 12.9 km/h
152 05-04-2020 12:35:00 16.6 C 5.51 g/m*3 16.6 C 11.3 km/h
153 05-04-2020 12:40:00 16.7 C 5.68 g/m*3 16.7 C 11.3 km/h
154 05-04-2020 12:45:00 16.8 C 5.43 g/m*3 16.8 C 6.4 km/h
155 05-04-2020 12:50:00 16.8 C 5.58 g/m*3 16.8 C 8.1 km/h
156 05-04-2020 12:55:00 16.8 C 5.29 g/m*3 16.8 C 9.7 km/h
157 05-04-2020 13:00:00 16.8 C 5.43 g/m*3 16.8 C 12.9 km/h
158 05-04-2020 13:05:00 16.9 C 5.32 g/m*3 16.9 C 9.7 km/h
159 05-04-2020 13:10:00 17.1 C 5.53 g/m*3 17.1 C 9.7 km/h
160 05-04-2020 13:15:00 17.3 C 5.6 g/m*3 17.3 C 11.3 km/h
161 05-04-2020 13:20:00 17.2 C 5.42 g/m*3 17.2 C 9.7 km/h
162 05-04-2020 13:25:00 17.3 C 5.45 g/m*3 17.3 C 12.9 km/h
163 05-04-2020 13:30:00 17.4 C 5.48 g/m*3 17.4 C 11.3 km/h
164 05-04-2020 13:35:00 17.4 C 5.48 g/m*3 17.4 C 14.5 km/h
165 05-04-2020 13:40:00 17.3 C 5.6 g/m*3 17.3 C 19.3 km/h
166 05-04-2020 13:45:00 17.3 C 5.3 g/m*3 17.3 C 9.7 km/h
167 05-04-2020 13:50:00 17.3 C 5.45 g/m*3 17.3 C 12.9 km/h
168 05-04-2020 13:55:00 17.4 C 5.34 g/m*3 17.4 C 16.1 km/h
169 05-04-2020 14:00:00 17.6 C 5.55 g/m*3 17.6 C 20.9 km/h
170 05-04-2020 14:05:00 17.7 C 5.58 g/m*3 17.7 C 8.1 km/h
171 05-04-2020 14:10:00 17.9 C 5.34 g/m*3 17.9 C 12.9 km/h
172 05-04-2020 14:15:00 17.9 C 5.65 g/m*3 17.9 C 22.5 km/h
173 05-04-2020 14:20:00 18.1 C 5.56 g/m*3 18.1 C 16.1 km/h
174 05-04-2020 14:25:00 18.2 C 5.6 g/m*3 18.2 C 17.7 km/h
175 05-04-2020 14:30:00 18.2 C 5.44 g/m*3 18.2 C 16.1 km/h
Sensor: Nr:Datum:Temp:Abs-Feuchte:Windchill:Wind:
Aussen-T/F 176 05-04-2020 14:35:00 18.3 C 5.63 g/m*3 18.3 C 11.3 km/h
177 05-04-2020 14:40:00 18.6 C 5.57 g/m*3 18.6 C 8.1 km/h
178 05-04-2020 14:45:00 18.7 C 5.6 g/m*3 18.7 C 11.3 km/h
179 05-04-2020 14:50:00 18.8 C 5.48 g/m*3 18.8 C 14.5 km/h
180 05-04-2020 14:55:00 18.6 C 5.57 g/m*3 18.6 C 12.9 km/h
181 05-04-2020 15:00:00 18.6 C 5.57 g/m*3 18.6 C 6.4 km/h
182 05-04-2020 15:05:00 18.8 C 5.64 g/m*3 18.8 C 6.4 km/h
183 05-04-2020 15:10:00 18.9 C 5.51 g/m*3 18.9 C 6.4 km/h
184 05-04-2020 15:15:00 19 C 5.38 g/m*3 19 C 6.4 km/h
185 05-04-2020 15:20:00 18.9 C 5.51 g/m*3 18.9 C 11.3 km/h
186 05-04-2020 15:25:00 18.9 C 5.35 g/m*3 18.9 C 8.1 km/h
187 05-04-2020 15:30:00 19.1 C 5.41 g/m*3 19.1 C 14.5 km/h
188 05-04-2020 15:35:00 18.9 C 5.18 g/m*3 18.9 C 14.5 km/h
189 05-04-2020 15:40:00 18.8 C 5.31 g/m*3 18.8 C 6.4 km/h
190 05-04-2020 15:45:00 18.9 C 5.67 g/m*3 18.9 C 11.3 km/h
191 05-04-2020 15:50:00 19 C 5.54 g/m*3 19 C 9.7 km/h
192 05-04-2020 15:55:00 19.2 C 5.44 g/m*3 19.2 C 11.3 km/h
193 05-04-2020 16:00:00 19.2 C 5.44 g/m*3 19.2 C 12.9 km/h
194 05-04-2020 16:05:00 19.3 C 5.31 g/m*3 19.3 C 14.5 km/h
195 05-04-2020 16:10:00 19.3 C 5.47 g/m*3 19.3 C 19.3 km/h
196 05-04-2020 16:15:00 19.4 C 5.51 g/m*3 19.4 C 12.9 km/h
197 05-04-2020 16:20:00 19.5 C 5.54 g/m*3 19.5 C 17.7 km/h
198 05-04-2020 16:25:00 19.6 C 5.4 g/m*3 19.6 C 17.7 km/h
199 05-04-2020 16:30:00 19.6 C 5.74 g/m*3 19.6 C 11.3 km/h
200 05-04-2020 16:35:00 19.8 C 5.64 g/m*3 19.8 C 11.3 km/h
Sensor: Nr:Datum:Temp:Abs-Feuchte:Windchill:Wind:
Aussen-T/F 201 05-04-2020 16:40:00 19.9 C 5.67 g/m*3 19.9 C 8.1 km/h
202 05-04-2020 16:45:00 20.3 C 5.63 g/m*3 20.3 C 12.9 km/h
203 05-04-2020 16:50:00 20.3 C 5.45 g/m*3 20.3 C 16.1 km/h
204 05-04-2020 16:55:00 20.2 C 5.42 g/m*3 20.2 C 16.1 km/h
205 05-04-2020 17:00:00 20.2 C 5.42 g/m*3 20.2 C 12.9 km/h
206 05-04-2020 17:05:00 20.1 C 5.74 g/m*3 20.1 C 12.9 km/h
207 05-04-2020 17:10:00 20.5 C 5.69 g/m*3 20.5 C 8.1 km/h
208 05-04-2020 17:15:00 20.9 C 5.83 g/m*3 20.9 C 6.4 km/h
209 05-04-2020 17:20:00 21.2 C 5.56 g/m*3 21.2 C 6.4 km/h
210 05-04-2020 17:25:00 21.1 C 5.71 g/m*3 21.1 C 11.3 km/h
211 05-04-2020 17:30:00 21.2 C 5.56 g/m*3 21.2 C 9.7 km/h
212 05-04-2020 17:35:00 21.2 C 5.56 g/m*3 21.2 C 12.9 km/h
213 05-04-2020 17:40:00 21.2 C 5.56 g/m*3 21.2 C 12.9 km/h
214 05-04-2020 17:45:00 21.1 C 5.53 g/m*3 21.1 C 9.7 km/h
215 05-04-2020 17:50:00 21 C 5.5 g/m*3 21 C 9.7 km/h
216 05-04-2020 17:55:00 21.1 C 5.53 g/m*3 21.1 C 8.1 km/h
217 05-04-2020 18:00:00 20.9 C 5.65 g/m*3 20.9 C 8.1 km/h
218 05-04-2020 18:05:00 20.9 C 5.46 g/m*3 20.9 C 8.1 km/h
219 05-04-2020 18:10:00 20.7 C 5.4 g/m*3 20.7 C 14.5 km/h
220 05-04-2020 18:15:00 20.4 C 5.48 g/m*3 20.4 C 11.3 km/h
221 05-04-2020 18:20:00 20.5 C 5.52 g/m*3 20.5 C 6.4 km/h
222 05-04-2020 18:25:00 20.7 C 5.76 g/m*3 20.7 C 8.1 km/h
223 05-04-2020 18:30:00 20.7 C 5.58 g/m*3 20.7 C 9.7 km/h
224 05-04-2020 18:35:00 20.7 C 5.76 g/m*3 20.7 C 9.7 km/h
225 05-04-2020 18:40:00 20.6 C 5.55 g/m*3 20.6 C 9.7 km/h
Sensor: Nr:Datum:Temp:Abs-Feuchte:Windchill:Wind:
Aussen-T/F 226 05-04-2020 18:45:00 20.4 C 5.48 g/m*3 20.4 C 11.3 km/h
227 05-04-2020 18:50:00 20.4 C 5.48 g/m*3 20.4 C 6.4 km/h
228 05-04-2020 18:55:00 20.4 C 5.48 g/m*3 20.4 C 8.1 km/h
229 05-04-2020 19:00:00 20.3 C 5.45 g/m*3 20.3 C 6.4 km/h
230 05-04-2020 19:05:00 20.3 C 5.45 g/m*3 20.3 C 4.8 km/h
231 05-04-2020 19:10:00 20.2 C 5.42 g/m*3 20.2 C 8.1 km/h
232 05-04-2020 19:15:00 20.1 C 5.56 g/m*3 20.1 C 4.8 km/h
233 05-04-2020 19:20:00 19.9 C 5.67 g/m*3 19.9 C 1.6 km/h
234 05-04-2020 19:25:00 19.8 C 6.15 g/m*3 19.8 C 3.2 km/h
235 05-04-2020 19:30:00 19.6 C 5.91 g/m*3 19.6 C 4.8 km/h
236 05-04-2020 19:35:00 19.4 C 6.01 g/m*3 19.4 C 1.6 km/h
237 05-04-2020 19:40:00 19.1 C 6.23 g/m*3 19.1 C 3.2 km/h
238 05-04-2020 19:45:00 18.6 C 6.21 g/m*3 18.6 C 3.2 km/h
239 05-04-2020 19:50:00 17.9 C 6.11 g/m*3 17.9 C 4.8 km/h
240 05-04-2020 19:55:00 17.2 C 6.15 g/m*3 17.2 C 4.8 km/h
241 05-04-2020 20:00:00 16.4 C 6.14 g/m*3 16.4 C 4.8 km/h
242 05-04-2020 20:05:00 15.8 C 6.06 g/m*3 15.8 C 6.4 km/h
243 05-04-2020 20:10:00 15.1 C 6.06 g/m*3 15.1 C 6.4 km/h
244 05-04-2020 20:15:00 14.6 C 5.88 g/m*3 14.6 C 6.4 km/h
245 05-04-2020 20:20:00 14.2 C 6.11 g/m*3 14.2 C 6.4 km/h
246 05-04-2020 20:25:00 13.8 C 5.96 g/m*3 13.8 C 6.4 km/h
247 05-04-2020 20:30:00 13.4 C 5.93 g/m*3 13.4 C 6.4 km/h
248 05-04-2020 20:35:00 13.1 C 5.93 g/m*3 13.1 C 6.4 km/h
249 05-04-2020 20:40:00 12.8 C 5.94 g/m*3 12.8 C 6.4 km/h
250 05-04-2020 20:45:00 12.6 C 5.97 g/m*3 12.6 C 4.8 km/h
Sensor: Nr:Datum:Temp:Abs-Feuchte:Windchill:Wind:
Aussen-T/F 251 05-04-2020 20:50:00 12.4 C 5.9 g/m*3 12.4 C 4.8 km/h
252 05-04-2020 20:55:00 12.3 C 5.86 g/m*3 12.3 C 6.4 km/h
253 05-04-2020 21:00:00 12.1 C 6.01 g/m*3 12.1 C 6.4 km/h
254 05-04-2020 21:05:00 11.9 C 5.93 g/m*3 11.9 C 6.4 km/h
255 05-04-2020 21:10:00 11.8 C 6 g/m*3 11.8 C 6.4 km/h
256 05-04-2020 21:15:00 11.7 C 5.96 g/m*3 11.7 C 6.4 km/h
257 05-04-2020 21:20:00 11.6 C 5.92 g/m*3 11.6 C 6.4 km/h
258 05-04-2020 21:25:00 11.4 C 5.85 g/m*3 11.4 C 4.8 km/h
259 05-04-2020 21:30:00 11.3 C 5.92 g/m*3 11.3 C 4.8 km/h
260 05-04-2020 21:35:00 11.2 C 5.88 g/m*3 11.2 C 6.4 km/h
261 05-04-2020 21:40:00 11.1 C 5.84 g/m*3 11.1 C 6.4 km/h
262 05-04-2020 21:45:00 10.9 C 5.87 g/m*3 10.9 C 4.8 km/h
263 05-04-2020 21:50:00 10.8 C 5.83 g/m*3 10.29 C 6.4 km/h
264 05-04-2020 21:55:00 10.6 C 5.86 g/m*3 10.6 C 4.8 km/h
265 05-04-2020 22:00:00 10.4 C 5.78 g/m*3 10.4 C 4.8 km/h
266 05-04-2020 22:05:00 10.3 C 5.84 g/m*3 10.3 C 4.8 km/h
267 05-04-2020 22:10:00 10.1 C 5.86 g/m*3 10.1 C 3.2 km/h
268 05-04-2020 22:15:00 9.9 C 5.79 g/m*3 9.9 C 4.8 km/h
269 05-04-2020 22:20:00 9.7 C 5.72 g/m*3 9.7 C 4.8 km/h
270 05-04-2020 22:25:00 9.6 C 5.77 g/m*3 9.6 C 3.2 km/h
271 05-04-2020 22:30:00 9.5 C 5.73 g/m*3 9.5 C 1.6 km/h
272 05-04-2020 22:35:00 9.4 C 5.79 g/m*3 9.4 C 1.6 km/h
273 05-04-2020 22:40:00 9.2 C 5.71 g/m*3 9.2 C 1.6 km/h
274 05-04-2020 22:45:00 9.1 C 5.68 g/m*3 9.1 C 0 km/h
275 05-04-2020 22:50:00 8.9 C 5.69 g/m*3 8.9 C 0 km/h
Sensor: Nr:Datum:Temp:Abs-Feuchte:Windchill:Wind:
Aussen-T/F 276 05-04-2020 22:55:00 8.9 C 5.78 g/m*3 8.9 C 0 km/h
277 05-04-2020 23:00:00 8.8 C 5.83 g/m*3 8.8 C 0 km/h
278 05-04-2020 23:05:00 8.6 C 5.84 g/m*3 8.6 C 0 km/h
279 05-04-2020 23:10:00 8.4 C 5.77 g/m*3 8.4 C 1.6 km/h
280 05-04-2020 23:15:00 8.2 C 5.78 g/m*3 8.2 C 0 km/h
281 05-04-2020 23:20:00 8.1 C 5.74 g/m*3 8.1 C 0 km/h
282 05-04-2020 23:25:00 8 C 5.7 g/m*3 8 C 0 km/h
283 05-04-2020 23:30:00 7.9 C 5.67 g/m*3 7.9 C 0 km/h
284 05-04-2020 23:35:00 7.8 C 5.63 g/m*3 7.8 C 0 km/h
285 05-04-2020 23:40:00 7.7 C 5.59 g/m*3 7.7 C 0 km/h
286 05-04-2020 23:45:00 7.7 C 5.68 g/m*3 7.7 C 0 km/h
287 05-04-2020 23:50:00 7.6 C 5.64 g/m*3 7.6 C 0 km/h
288 05-04-2020 23:55:00 7.4 C 5.57 g/m*3 7.4 C 0 km/h

Legende:
   Min
   Max


Maximal/Minimal-Werte vom 05.04.2020 - 05.04.2020

Sensor Min Max Avg
Temp
(Aussen-T/F)
0.2 °C
05-04-2020  07:05:00
21.2 °C
05-04-2020  17:20:00
9.49 °C
Abs-Feuchte
(Aussen-T/F)
4.55 g/m*3
05-04-2020  06:35:00
7 g/m*3
05-04-2020  11:15:00
5.36 g/m*3
Windchill
(Aussen-T/F)
0.2 C
05-04-2020  07:05:00
21.2 C
05-04-2020  17:20:00
9.46 C

Die Daten stammen von einer Davis Vantage Pro 2 Wetter-Station und werden unter Linux mit der Software wview2wettercgi und aufbereitet. Alle Angaben erfolgen ohne Gewähr für ihre Vollständigkeit oder Richtigkeit.
Kontakt: Rainer Krienke krienke@uni-koblenz.de . Meine Webseiten an der Uni Koblenz oder privat.
Version: $Revision: 0.78 $